createdAt,value
2018-06-22T00:00:57.264Z,81.85
2018-06-22T00:01:57.296Z,80.99
2018-06-22T00:02:57.268Z,81.76
2018-06-22T00:03:57.268Z,81.76
2018-06-22T00:04:57.306Z,82.04
2018-06-22T00:05:57.759Z,81.85
2018-06-22T00:06:57.260Z,81.66
2018-06-22T00:07:58.315Z,82.00
2018-06-22T00:08:57.272Z,82.71
2018-06-22T00:09:57.295Z,82.52
2018-06-22T00:10:57.258Z,81.85
2018-06-22T00:11:57.322Z,82.67
2018-06-22T00:12:57.243Z,83.53
2018-06-22T00:13:57.243Z,83.24
2018-06-22T00:14:57.223Z,83.72
2018-06-22T00:15:58.877Z,83.24
2018-06-22T00:16:58.665Z,83.57
2018-06-22T00:17:58.299Z,83.53
2018-06-22T00:18:58.812Z,84.20
2018-06-22T00:19:58.811Z,84.10
2018-06-22T00:20:58.277Z,83.72
2018-06-22T00:21:58.353Z,83.47
2018-06-22T00:22:58.371Z,83.24
2018-06-22T00:23:58.724Z,84.10
2018-06-22T00:24:58.345Z,83.62
2018-06-22T00:25:59.152Z,84.20
2018-06-22T00:26:58.356Z,84.53
2018-06-22T00:27:58.733Z,85.05
2018-06-22T00:28:58.740Z,84.20
2018-06-22T00:29:58.617Z,84.39
2018-06-22T00:30:58.666Z,84.39
2018-06-22T00:32:01.320Z,84.39
2018-06-22T00:32:58.695Z,84.39
2018-06-22T00:33:58.884Z,84.67
2018-06-22T00:34:58.735Z,84.48
2018-06-22T00:35:59.169Z,84.67
2018-06-22T00:36:58.686Z,84.58
2018-06-22T00:37:58.701Z,84.39
2018-06-22T00:38:58.707Z,85.58
2018-06-22T00:39:58.689Z,85.39
2018-06-22T00:40:58.701Z,84.77
2018-06-22T00:41:58.299Z,85.05
2018-06-22T00:42:58.341Z,85.49
2018-06-22T00:43:58.804Z,84.92
2018-06-22T00:44:58.734Z,85.25
2018-06-22T00:45:57.157Z,84.96
2018-06-22T00:46:58.721Z,84.86
2018-06-22T00:47:58.698Z,84.29
2018-06-22T00:48:58.820Z,84.39
2018-06-22T00:49:58.797Z,84.48
2018-06-22T00:50:58.633Z,85.15
2018-06-22T00:51:58.728Z,85.15
2018-06-22T00:52:58.697Z,85.25
2018-06-22T00:53:58.689Z,84.58
2018-06-22T00:54:58.670Z,85.97
2018-06-22T00:55:58.697Z,85.25
2018-06-22T00:56:58.622Z,85.53
2018-06-22T00:57:58.668Z,86.20
2018-06-22T00:58:58.667Z,85.63
2018-06-22T00:59:58.674Z,85.82
2018-06-22T01:00:58.678Z,85.34
2018-06-22T01:01:58.702Z,85.34
2018-06-22T01:02:58.652Z,85.53
2018-06-22T01:03:58.818Z,85.44
2018-06-22T01:04:58.652Z,85.44
2018-06-22T01:05:58.916Z,85.44
2018-06-22T01:06:58.251Z,85.53
2018-06-22T01:07:58.679Z,85.15
2018-06-22T01:08:58.653Z,84.86
2018-06-22T01:09:58.649Z,84.58
2018-06-22T01:10:58.672Z,84.20
2018-06-22T01:11:58.858Z,84.67
2018-06-22T01:12:58.621Z,85.05
2018-06-22T01:13:58.557Z,85.44
2018-06-22T01:14:58.710Z,84.86
2018-06-22T01:15:58.821Z,85.34
2018-06-22T01:16:58.774Z,84.86
2018-06-22T01:17:58.726Z,85.25
2018-06-22T01:18:58.694Z,85.34
2018-06-22T01:19:58.661Z,85.05
2018-06-22T01:20:58.309Z,85.15
2018-06-22T01:21:58.724Z,85.30
2018-06-22T01:23:00.431Z,86.06
2018-06-22T01:23:58.664Z,86.30
2018-06-22T01:24:58.662Z,86.06
2018-06-22T01:25:58.671Z,85.91
2018-06-22T01:26:58.612Z,85.72
2018-06-22T01:27:58.695Z,85.34
2018-06-22T01:28:58.688Z,85.25
2018-06-22T01:29:58.685Z,85.63
2018-06-22T01:30:58.653Z,85.34
2018-06-22T01:31:58.136Z,85.15
2018-06-22T01:32:58.681Z,85.15
2018-06-22T01:33:58.694Z,85.25
2018-06-22T01:34:58.667Z,85.25
2018-06-22T01:35:58.634Z,84.96
2018-06-22T01:36:58.708Z,85.72
2018-06-22T01:37:58.677Z,86.20
2018-06-22T01:38:58.691Z,85.39
2018-06-22T01:39:59.168Z,85.44
2018-06-22T01:40:58.835Z,85.97
2018-06-22T01:41:58.641Z,86.63
2018-06-22T01:42:58.685Z,86.01
2018-06-22T01:43:58.678Z,86.01
2018-06-22T01:44:58.706Z,85.53
2018-06-22T01:45:58.712Z,85.34
2018-06-22T01:46:58.709Z,85.34
2018-06-22T01:47:58.732Z,85.53
2018-06-22T01:48:58.698Z,85.72
2018-06-22T01:49:58.744Z,85.87
2018-06-22T01:50:58.683Z,86.92
2018-06-22T01:51:58.773Z,86.30
2018-06-22T01:52:59.178Z,86.25
2018-06-22T01:53:58.662Z,86.54
2018-06-22T01:54:58.620Z,86.20
2018-06-22T01:55:58.896Z,86.39
2018-06-22T01:56:58.674Z,86.39
2018-06-22T01:57:58.619Z,86.10
2018-06-22T01:58:58.380Z,85.82
2018-06-22T02:00:00.467Z,86.01
2018-06-22T02:01:00.679Z,86.44
2018-06-22T02:01:58.652Z,86.39
2018-06-22T02:02:58.641Z,86.68
2018-06-22T02:03:58.677Z,86.35
2018-06-22T02:04:58.655Z,86.54
2018-06-22T02:05:58.857Z,86.58
2018-06-22T02:06:58.671Z,86.49
2018-06-22T02:07:58.699Z,85.63
2018-06-22T02:08:58.518Z,85.25
2018-06-22T02:09:58.506Z,86.20
2018-06-22T02:11:00.235Z,86.30
2018-06-22T02:11:58.520Z,86.58
2018-06-22T02:12:58.516Z,86.49
2018-06-22T02:14:00.418Z,86.68
2018-06-22T02:14:58.925Z,86.63
2018-06-22T02:15:58.545Z,87.11
2018-06-22T02:17:00.699Z,86.87
2018-06-22T02:18:00.220Z,86.44
2018-06-22T02:19:00.193Z,86.58
2018-06-22T02:20:00.217Z,87.11
2018-06-22T02:21:00.220Z,87.78
2018-06-22T02:21:58.351Z,87.97
2018-06-22T02:23:00.339Z,88.35
2018-06-22T02:23:58.893Z,87.97
2018-06-22T02:24:58.730Z,87.59
2018-06-22T02:25:58.240Z,87.87
2018-06-22T02:26:58.212Z,87.54
2018-06-22T02:27:57.982Z,87.82
2018-06-22T02:28:58.268Z,87.78
2018-06-22T02:29:58.302Z,88.20
2018-06-22T02:30:58.289Z,87.73
2018-06-22T02:31:58.297Z,87.87
2018-06-22T02:32:58.311Z,88.26
2018-06-22T02:33:58.968Z,88.73
2018-06-22T02:34:58.305Z,88.45
2018-06-22T02:36:00.703Z,88.73
2018-06-22T02:36:57.964Z,88.26
2018-06-22T02:37:58.313Z,88.83
2018-06-22T02:38:58.593Z,88.73
2018-06-22T02:39:58.513Z,88.73
2018-06-22T02:40:58.457Z,89.12
2018-06-22T02:41:58.707Z,89.40
2018-06-22T02:42:58.278Z,89.31
2018-06-22T02:43:58.306Z,89.02
2018-06-22T02:44:58.416Z,89.40
2018-06-22T02:45:58.317Z,89.45
2018-06-22T02:46:57.974Z,89.97
2018-06-22T02:47:58.338Z,90.07
2018-06-22T02:48:58.375Z,89.88
2018-06-22T02:50:00.122Z,90.36
2018-06-22T02:50:58.304Z,90.55
2018-06-22T02:51:58.355Z,90.26
2018-06-22T02:52:58.345Z,91.12
2018-06-22T02:53:58.264Z,90.45
2018-06-22T02:54:58.491Z,91.21
2018-06-22T02:55:58.286Z,91.21
2018-06-22T02:56:58.173Z,91.12
2018-06-22T02:57:58.193Z,90.45
2018-06-22T03:00:31.295Z,90.97
2018-06-22T03:01:31.813Z,91.41
2018-06-22T03:03:25.664Z,91.50
2018-06-22T03:04:26.161Z,91.98
2018-06-22T03:06:20.028Z,90.31
2018-06-22T03:07:20.207Z,90.59
2018-06-22T03:09:13.969Z,91.21
2018-06-22T03:10:14.378Z,91.21
2018-06-22T03:12:08.861Z,90.83
2018-06-22T03:13:09.004Z,90.40
2018-06-22T03:15:02.459Z,90.31
2018-06-22T03:16:02.762Z,89.69
2018-06-22T03:17:57.349Z,89.92
2018-06-22T03:18:59.611Z,90.59
2018-06-22T03:20:51.294Z,90.21
2018-06-22T03:21:53.784Z,90.31
2018-06-22T03:23:46.055Z,91.16
2018-06-22T03:24:46.664Z,91.26
2018-06-22T03:26:42.483Z,91.41
2018-06-22T03:27:40.820Z,91.45
2018-06-22T03:28:40.778Z,92.21
2018-06-22T03:29:40.811Z,92.50
2018-06-22T03:30:40.826Z,92.65
2018-06-22T03:31:40.823Z,93.51
2018-06-22T03:32:40.813Z,94.74
2018-06-22T03:33:40.821Z,93.93
2018-06-22T03:34:40.817Z,93.36
2018-06-22T03:35:40.826Z,93.36
2018-06-22T03:36:41.079Z,92.97
2018-06-22T03:37:41.506Z,93.74
2018-06-22T03:38:40.363Z,94.17
2018-06-22T03:39:40.723Z,94.46
2018-06-22T03:40:41.005Z,94.27
2018-06-22T03:41:40.834Z,94.51
2018-06-22T03:42:40.762Z,94.31
2018-06-22T03:43:41.060Z,95.03
2018-06-22T03:44:40.856Z,95.12
2018-06-22T03:45:40.853Z,95.84
2018-06-22T03:46:40.854Z,95.36
2018-06-22T03:47:40.832Z,95.84
2018-06-22T03:48:40.848Z,95.12
2018-06-22T03:49:41.476Z,95.46
2018-06-22T03:50:40.756Z,95.65
2018-06-22T03:51:40.821Z,95.22
2018-06-22T03:52:40.830Z,96.37
2018-06-22T03:53:40.842Z,96.17
2018-06-22T03:54:40.871Z,96.42
2018-06-22T03:55:40.890Z,96.37
2018-06-22T03:56:40.540Z,96.17
2018-06-22T03:57:40.857Z,96.08
2018-06-22T03:58:40.829Z,97.42
2018-06-22T03:59:40.840Z,97.22
2018-06-22T04:00:40.829Z,97.89
2018-06-22T04:01:40.825Z,98.08
2018-06-22T04:02:40.826Z,97.99
2018-06-22T04:03:40.858Z,97.99
2018-06-22T04:04:41.035Z,98.56
2018-06-22T04:05:41.037Z,98.47
2018-06-22T04:06:43.369Z,98.85
2018-06-22T04:07:40.203Z,98.47
2018-06-22T04:08:41.008Z,99.42
2018-06-22T04:09:40.845Z,99.04
2018-06-22T04:10:40.867Z,99.04
2018-06-22T04:11:41.494Z,99.32
2018-06-22T04:12:40.307Z,99.04
2018-06-22T04:13:40.824Z,99.32
2018-06-22T04:14:40.830Z,99.27
2018-06-22T04:15:40.873Z,99.90
2018-06-22T04:16:40.800Z,99.99
2018-06-22T04:17:40.869Z,99.52
2018-06-22T04:18:40.982Z,98.94
2018-06-22T04:19:40.588Z,98.85
2018-06-22T04:20:42.641Z,98.47
2018-06-22T04:21:41.080Z,98.75
2018-06-22T04:22:42.897Z,97.51
2018-06-22T04:23:40.314Z,97.99
2018-06-22T04:24:40.932Z,97.89
2018-06-22T04:25:40.515Z,98.47
2018-06-22T04:26:41.359Z,98.66
2018-06-22T04:27:40.828Z,97.80
2018-06-22T04:28:40.584Z,97.42
2018-06-22T04:29:41.440Z,96.94
2018-06-22T04:30:43.453Z,96.84
2018-06-22T04:31:40.214Z,97.03
2018-06-22T04:32:41.186Z,97.03
2018-06-22T04:33:41.339Z,95.79
2018-06-22T04:34:40.866Z,95.12
2018-06-22T04:35:41.338Z,95.32
2018-06-22T04:36:41.039Z,95.32
2018-06-22T04:37:40.676Z,95.41
2018-06-22T04:38:40.281Z,95.41
2018-06-22T04:39:40.216Z,95.61
2018-06-22T04:40:41.041Z,94.93
2018-06-22T04:41:40.832Z,93.88
2018-06-22T04:42:40.631Z,93.88
2018-06-22T04:43:40.704Z,95.41
2018-06-22T04:44:40.669Z,95.12
2018-06-22T04:45:42.399Z,94.07
2018-06-22T04:46:41.046Z,94.56
2018-06-22T04:47:40.663Z,93.98
2018-06-22T04:48:40.733Z,93.70
2018-06-22T04:49:41.039Z,94.07
2018-06-22T04:50:40.568Z,93.88
2018-06-22T04:51:41.065Z,94.46
2018-06-22T04:52:40.835Z,93.88
2018-06-22T04:53:41.061Z,93.70
2018-06-22T04:54:40.683Z,94.93
2018-06-22T04:55:40.783Z,94.46
2018-06-22T04:56:41.058Z,94.65
2018-06-22T04:57:41.065Z,94.46
2018-06-22T04:58:41.059Z,95.03
2018-06-22T04:59:41.058Z,95.12
2018-06-22T05:00:40.879Z,94.93
2018-06-22T05:01:40.925Z,94.07
2018-06-22T05:02:41.023Z,94.17
2018-06-22T05:03:40.264Z,94.46
2018-06-22T05:04:40.825Z,93.22
2018-06-22T05:05:40.466Z,93.60
2018-06-22T05:06:40.439Z,93.55
2018-06-22T05:07:40.511Z,94.93
2018-06-22T05:08:41.063Z,94.65
2018-06-22T05:09:40.590Z,94.56
2018-06-22T05:10:40.524Z,95.12
2018-06-22T05:11:42.340Z,94.17
2018-06-22T05:12:40.599Z,95.03
2018-06-22T05:13:40.544Z,95.41
2018-06-22T05:14:40.733Z,96.17
2018-06-22T05:15:40.993Z,95.41
2018-06-22T05:16:40.073Z,95.51
2018-06-22T05:17:40.746Z,95.46
2018-06-22T05:18:40.227Z,95.70
2018-06-22T05:19:40.792Z,96.37
2018-06-22T05:20:40.420Z,96.66
2018-06-22T05:21:40.481Z,95.89
2018-06-22T05:22:41.016Z,95.98
2018-06-22T05:23:40.500Z,96.27
2018-06-22T05:24:40.536Z,95.51
2018-06-22T05:25:40.822Z,96.37
2018-06-22T05:26:41.041Z,97.22
2018-06-22T05:27:41.283Z,96.75
2018-06-22T05:28:40.143Z,97.03
2018-06-22T05:29:40.990Z,97.61
2018-06-22T05:30:40.528Z,97.61
2018-06-22T05:31:41.654Z,96.66
2018-06-22T05:32:40.485Z,96.94
2018-06-22T05:33:40.612Z,97.51
2018-06-22T05:34:40.872Z,97.61
2018-06-22T05:35:40.527Z,97.61
2018-06-22T05:36:40.355Z,98.18
2018-06-22T05:37:40.948Z,97.56
2018-06-22T05:38:40.832Z,98.47
2018-06-22T05:39:40.539Z,97.99
2018-06-22T05:40:41.149Z,97.37
2018-06-22T05:41:42.666Z,97.99
2018-06-22T05:42:42.599Z,98.08
2018-06-22T05:43:40.552Z,97.32
2018-06-22T05:44:38.899Z,97.03
2018-06-22T05:46:41.028Z,96.94
2018-06-22T05:47:41.107Z,97.42
2018-06-22T05:48:40.878Z,97.03
2018-06-22T05:49:40.856Z,97.42
2018-06-22T05:50:42.232Z,97.42
2018-06-22T05:51:40.882Z,97.80
2018-06-22T05:52:40.936Z,97.80
2018-06-22T05:53:40.570Z,98.27
2018-06-22T05:54:40.367Z,98.94
2018-06-22T05:55:41.323Z,98.56
2018-06-22T05:56:40.626Z,98.37
2018-06-22T05:57:40.421Z,97.37
2018-06-22T05:58:40.735Z,98.56
2018-06-22T05:59:41.086Z,97.85
2018-06-22T06:00:40.580Z,97.51
2018-06-22T06:01:40.748Z,98.66
2018-06-22T06:02:39.940Z,98.37
2018-06-22T06:03:40.472Z,98.99
2018-06-22T06:04:40.555Z,98.08
2018-06-22T06:05:40.864Z,99.42
2018-06-22T06:06:40.930Z,99.99
2018-06-22T06:07:40.398Z,99.23
2018-06-22T06:08:40.855Z,99.99
2018-06-22T06:09:42.626Z,99.13
2018-06-22T06:10:41.002Z,98.99
2018-06-22T06:11:40.852Z,98.52
2018-06-22T06:12:40.424Z,98.13
2018-06-22T06:13:40.819Z,97.66
2018-06-22T06:14:40.997Z,96.61
2018-06-22T06:15:40.650Z,97.18
2018-06-22T06:16:40.903Z,97.85
2018-06-22T06:17:40.318Z,98.32
2018-06-22T06:18:40.993Z,97.85
2018-06-22T06:19:40.370Z,99.37
2018-06-22T06:20:40.609Z,97.37
2018-06-22T06:21:40.885Z,98.61
2018-06-22T06:22:40.364Z,97.56
2018-06-22T06:23:40.629Z,97.75
2018-06-22T06:24:40.627Z,97.27
2018-06-22T06:25:40.914Z,98.23
2018-06-22T06:26:42.086Z,98.80
2018-06-22T06:27:40.360Z,98.23
2018-06-22T06:28:40.613Z,97.61
2018-06-22T06:29:38.873Z,96.61
2018-06-22T06:32:13.032Z,96.37
2018-06-22T06:33:12.604Z,96.66
2018-06-22T06:35:05.835Z,97.23
2018-06-22T06:36:06.382Z,97.47
2018-06-22T06:38:00.629Z,97.85
2018-06-22T06:39:00.511Z,97.27
2018-06-22T06:40:54.712Z,97.66
2018-06-22T06:41:55.034Z,98.47
2018-06-22T06:43:50.220Z,96.75
2018-06-22T06:44:51.007Z,96.56
2018-06-22T06:46:44.039Z,96.46
2018-06-22T06:47:44.612Z,95.89
2018-06-22T06:49:38.919Z,95.89
2018-06-22T06:51:53.092Z,95.36
2018-06-22T06:52:53.535Z,94.41
2018-06-22T06:54:47.898Z,95.07
2018-06-22T06:55:47.727Z,96.46
2018-06-22T06:57:42.419Z,95.79
2018-06-22T06:58:41.938Z,96.17
2018-06-22T07:00:37.071Z,96.27
2018-06-22T07:01:36.388Z,96.17
2018-06-22T07:03:30.573Z,96.17
2018-06-22T07:04:31.724Z,95.61
2018-06-22T07:06:25.374Z,96.08
2018-06-22T07:07:24.818Z,95.12
2018-06-22T07:09:19.559Z,95.41
2018-06-22T07:10:19.594Z,96.94
2018-06-22T07:12:13.761Z,95.75
2018-06-22T07:13:13.722Z,95.36
2018-06-22T07:15:09.399Z,94.70
2018-06-22T07:16:08.202Z,94.70
2018-06-22T07:17:07.753Z,95.65
2018-06-22T07:18:08.385Z,95.36
2018-06-22T07:19:07.750Z,94.70
2018-06-22T07:20:08.396Z,94.65
2018-06-22T07:21:08.994Z,94.55
2018-06-22T07:22:07.372Z,94.02
2018-06-22T07:23:08.208Z,94.74
2018-06-22T07:24:07.865Z,92.79
2018-06-22T07:25:07.849Z,92.97
2018-06-22T07:26:07.894Z,94.02
2018-06-22T07:27:09.031Z,94.51
2018-06-22T07:28:07.301Z,94.70
2018-06-22T07:29:08.202Z,93.26
2018-06-22T07:30:08.383Z,92.21
2018-06-22T07:31:08.200Z,92.07
2018-06-22T07:32:08.249Z,91.49
2018-06-22T07:33:07.690Z,91.78
2018-06-22T07:34:07.721Z,91.30
2018-06-22T07:35:07.920Z,90.34
2018-06-22T07:36:08.201Z,90.16
2018-06-22T07:37:06.313Z,89.53
2018-06-22T07:38:08.498Z,89.62
2018-06-22T07:39:07.900Z,90.10
2018-06-22T07:40:08.238Z,89.15
2018-06-22T07:41:08.788Z,90.01
2018-06-22T07:42:07.780Z,88.48
2018-06-22T07:43:07.557Z,88.19
2018-06-22T07:44:07.949Z,88.19
2018-06-22T07:45:07.698Z,88.09
2018-06-22T07:46:07.964Z,87.95
2018-06-22T07:47:08.285Z,88.13
2018-06-22T07:48:08.323Z,86.90
2018-06-22T07:49:07.969Z,86.13
2018-06-22T07:50:07.613Z,86.61
2018-06-22T07:51:08.345Z,86.57
2018-06-22T07:52:08.315Z,86.57
2018-06-22T07:53:07.853Z,86.51
2018-06-22T07:54:08.319Z,85.89
2018-06-22T07:55:09.799Z,85.80
2018-06-22T07:56:07.954Z,85.61
2018-06-22T07:57:08.478Z,86.18
2018-06-22T07:58:08.356Z,85.32
2018-06-22T07:59:08.070Z,85.22
2018-06-22T08:00:07.919Z,85.17
2018-06-22T08:01:08.030Z,85.75
2018-06-22T08:02:06.467Z,84.98
2018-06-22T08:03:08.218Z,85.36
2018-06-22T08:04:07.846Z,84.59
2018-06-22T08:05:07.873Z,84.79
2018-06-22T08:06:08.415Z,84.88
2018-06-22T08:07:08.224Z,84.50
2018-06-22T08:08:07.783Z,84.59
2018-06-22T08:09:08.374Z,85.75
2018-06-22T08:10:07.742Z,85.17
2018-06-22T08:11:08.426Z,85.84
2018-06-22T08:12:08.423Z,85.55
2018-06-22T08:13:07.860Z,84.59
2018-06-22T08:14:08.263Z,84.22
2018-06-22T08:15:07.952Z,84.79
2018-06-22T08:16:08.114Z,84.12
2018-06-22T08:17:06.080Z,83.26
2018-06-22T08:18:08.073Z,83.26
2018-06-22T08:19:07.955Z,83.06
2018-06-22T08:20:10.248Z,82.30
2018-06-22T08:21:07.862Z,82.30
2018-06-22T08:22:08.205Z,81.96
2018-06-22T08:23:07.710Z,81.67
2018-06-22T08:24:08.221Z,80.71
2018-06-22T08:25:07.932Z,79.66
2018-06-22T08:26:07.879Z,79.28
2018-06-22T08:27:07.927Z,78.32
2018-06-22T08:28:08.409Z,78.13
2018-06-22T08:29:07.722Z,79.37
2018-06-22T08:30:08.077Z,79.28
2018-06-22T08:31:08.183Z,79.28
2018-06-22T08:32:08.685Z,79.47
2018-06-22T08:33:07.682Z,79.72
2018-06-22T08:34:08.330Z,80.77
2018-06-22T08:35:07.871Z,79.91
2018-06-22T08:36:07.933Z,80.96
2018-06-22T08:37:08.248Z,80.96
2018-06-22T08:38:06.387Z,81.63
2018-06-22T08:39:08.476Z,81.92
2018-06-22T08:40:07.861Z,81.63
2018-06-22T08:41:07.880Z,81.34
2018-06-22T08:42:07.987Z,82.20
2018-06-22T08:43:07.967Z,83.16
2018-06-22T08:44:07.871Z,82.87
2018-06-22T08:45:07.734Z,82.87
2018-06-22T08:46:08.428Z,83.16
2018-06-22T08:47:06.104Z,81.25
2018-06-22T08:48:08.317Z,81.44
2018-06-22T08:49:07.904Z,80.77
2018-06-22T08:50:07.877Z,80.96
2018-06-22T08:51:07.934Z,80.33
2018-06-22T08:52:07.867Z,79.37
2018-06-22T08:53:08.386Z,79.37
2018-06-22T08:54:08.431Z,78.74
2018-06-22T08:55:07.931Z,79.03
2018-06-22T08:56:07.978Z,76.96
2018-06-22T08:57:08.220Z,77.06
2018-06-22T08:58:07.871Z,76.67
2018-06-22T08:59:07.930Z,74.72
2018-06-22T09:00:08.223Z,74.05
2018-06-22T09:01:08.314Z,74.62
2018-06-22T09:02:07.888Z,74.62
2018-06-22T09:03:07.952Z,74.57
2018-06-22T09:04:08.331Z,74.08
2018-06-22T09:05:09.700Z,73.13
2018-06-22T09:06:08.219Z,72.74
2018-06-22T09:07:08.810Z,72.07
2018-06-22T09:08:07.711Z,72.01
2018-06-22T09:09:07.103Z,71.78
2018-06-22T09:10:06.140Z,73.19
2018-06-22T09:11:07.960Z,74.72
2018-06-22T09:12:10.244Z,75.58
2018-06-22T09:13:07.446Z,75.62
2018-06-22T09:14:08.015Z,76.00
2018-06-22T09:15:08.233Z,76.39
2018-06-22T09:16:07.980Z,77.31
2018-06-22T09:17:06.152Z,76.92
2018-06-22T09:18:08.028Z,76.73
2018-06-22T09:19:08.280Z,76.67
2018-06-22T09:20:08.460Z,77.02
2018-06-22T09:21:08.253Z,76.29
2018-06-22T09:22:07.702Z,76.25
2018-06-22T09:23:08.016Z,76.64
2018-06-22T09:24:08.282Z,76.57
2018-06-22T09:25:07.100Z,75.81
2018-06-22T09:26:07.988Z,76.86
2018-06-22T09:27:07.946Z,76.29
2018-06-22T09:28:07.975Z,76.39
2018-06-22T09:29:07.950Z,76.77
2018-06-22T09:30:07.883Z,76.86
2018-06-22T09:31:08.035Z,77.69
2018-06-22T09:32:08.431Z,79.99
2018-06-22T09:33:07.992Z,81.71
2018-06-22T09:34:08.240Z,81.96
2018-06-22T09:35:08.218Z,83.20
2018-06-22T09:36:08.282Z,83.68
2018-06-22T09:37:08.285Z,84.45
2018-06-22T09:38:07.740Z,84.35
2018-06-22T09:39:09.549Z,85.17
2018-06-22T09:40:08.912Z,85.46
2018-06-22T09:41:07.944Z,85.27
2018-06-22T09:42:09.349Z,85.94
2018-06-22T09:43:10.244Z,87.47
2018-06-22T09:44:07.980Z,86.51
2018-06-22T09:45:07.449Z,86.51
2018-06-22T09:46:09.833Z,86.36
2018-06-22T09:47:07.052Z,86.46
2018-06-22T09:48:07.946Z,86.74
2018-06-22T09:49:08.274Z,87.23
2018-06-22T09:50:07.437Z,87.51
2018-06-22T09:51:08.407Z,86.74
2018-06-22T09:52:07.453Z,88.56
2018-06-22T09:53:08.509Z,87.55
2018-06-22T09:54:08.390Z,86.41
2018-06-22T09:55:07.746Z,86.46
2018-06-22T09:56:07.716Z,86.17
2018-06-22T09:57:08.236Z,86.27
2018-06-22T09:58:08.452Z,85.83
2018-06-22T09:59:08.239Z,86.79
2018-06-22T10:00:08.780Z,88.03
2018-06-22T10:01:08.250Z,86.84
2018-06-22T10:02:08.018Z,85.98
2018-06-22T10:03:10.001Z,85.50
2018-06-22T10:04:06.036Z,85.64
2018-06-22T10:05:08.296Z,86.79
2018-06-22T10:06:08.290Z,85.45
2018-06-22T10:07:08.151Z,82.57
2018-06-22T10:08:06.687Z,82.38
2018-06-22T10:09:07.789Z,80.27
2018-06-22T10:10:08.106Z,80.66
2018-06-22T10:11:07.985Z,79.45
2018-06-22T10:12:08.446Z,78.49
2018-06-22T10:13:08.243Z,78.11
2018-06-22T10:14:07.832Z,78.20
2018-06-22T10:15:08.290Z,77.92
2018-06-22T10:16:08.361Z,77.73
2018-06-22T10:17:08.399Z,76.48
2018-06-22T10:18:08.251Z,77.44
2018-06-22T10:19:07.994Z,76.57
2018-06-22T10:20:08.394Z,76.90
2018-06-22T10:21:07.724Z,76.52
2018-06-22T10:22:07.949Z,74.79
2018-06-22T10:23:09.894Z,74.37
2018-06-22T10:24:07.274Z,75.46
2018-06-22T10:25:08.642Z,76.00
2018-06-22T10:26:07.628Z,76.73
2018-06-22T10:27:07.839Z,78.27
2018-06-22T10:28:07.978Z,79.16
2018-06-22T10:29:07.140Z,79.80
2018-06-22T10:30:07.921Z,81.04
2018-06-22T10:31:07.565Z,82.29
2018-06-22T10:32:09.324Z,82.57
2018-06-22T10:33:09.768Z,82.86
2018-06-22T10:34:09.521Z,82.57
2018-06-22T10:35:08.700Z,81.75
2018-06-22T10:36:07.443Z,79.55
2018-06-22T10:37:07.955Z,78.49
2018-06-22T10:38:09.460Z,77.15
2018-06-22T10:39:07.415Z,75.85
2018-06-22T10:40:07.933Z,75.71
2018-06-22T10:41:07.906Z,75.71
2018-06-22T10:42:09.500Z,76.39
2018-06-22T10:43:08.159Z,76.77
2018-06-22T10:44:09.345Z,76.67
2018-06-22T10:45:07.848Z,76.19
2018-06-22T10:46:07.547Z,78.02
2018-06-22T10:47:07.953Z,79.36
2018-06-22T10:48:07.967Z,78.02
2018-06-22T10:49:07.633Z,78.20
2018-06-22T10:50:09.087Z,77.73
2018-06-22T10:51:08.018Z,77.53
2018-06-22T10:52:07.764Z,78.02
2018-06-22T10:53:07.452Z,78.11
2018-06-22T10:54:11.613Z,77.09
2018-06-22T10:55:10.204Z,76.67
2018-06-22T10:56:09.344Z,76.62
2018-06-22T10:57:08.284Z,77.58
2018-06-22T10:58:09.881Z,76.81
2018-06-22T10:59:07.932Z,76.42
2018-06-22T11:00:08.207Z,76.62
2018-06-22T11:01:09.292Z,75.18
2018-06-22T11:02:07.869Z,74.51
2018-06-22T11:03:08.077Z,74.41
2018-06-22T11:04:07.867Z,74.60
2018-06-22T11:05:09.798Z,74.12
2018-06-22T11:06:07.990Z,75.27
2018-06-22T11:07:06.044Z,75.02
2018-06-22T11:08:08.151Z,73.97
2018-06-22T11:09:07.812Z,72.72
2018-06-22T11:10:08.838Z,73.00
2018-06-22T11:11:07.654Z,72.47
2018-06-22T11:12:07.442Z,71.93
2018-06-22T11:13:06.607Z,70.78
2018-06-22T11:14:09.750Z,70.20
2018-06-22T11:15:07.751Z,70.93
2018-06-22T11:16:09.770Z,70.84
2018-06-22T11:17:07.938Z,69.72
2018-06-22T11:18:07.496Z,70.10
2018-06-22T11:19:07.268Z,70.97
2018-06-22T11:20:08.190Z,70.17
2018-06-22T11:21:09.910Z,70.10
2018-06-22T11:22:09.781Z,68.95
2018-06-22T11:23:08.087Z,68.57
2018-06-22T11:24:07.972Z,67.51
2018-06-22T11:25:09.481Z,67.80
2018-06-22T11:26:07.971Z,67.03
2018-06-22T11:27:08.884Z,67.03
2018-06-22T11:28:07.632Z,66.16
2018-06-22T11:29:07.867Z,66.46
2018-06-22T11:30:07.981Z,66.77
2018-06-22T11:31:08.003Z,64.85
2018-06-22T11:32:07.961Z,64.85
2018-06-22T11:33:08.253Z,65.43
2018-06-22T11:34:07.177Z,64.56
2018-06-22T11:35:07.926Z,64.28
2018-06-22T11:36:07.982Z,63.67
2018-06-22T11:37:07.700Z,63.38
2018-06-22T11:38:08.004Z,64.34
2018-06-22T11:39:08.982Z,63.57
2018-06-22T11:40:07.987Z,63.28
2018-06-22T11:41:07.996Z,63.57
2018-06-22T11:42:07.534Z,63.38
2018-06-22T11:43:09.550Z,62.32
2018-06-22T11:44:07.435Z,61.91
2018-06-22T11:45:07.968Z,61.33
2018-06-22T11:46:07.759Z,60.21
2018-06-22T11:47:09.099Z,60.02
2018-06-22T11:48:07.979Z,60.63
2018-06-22T11:49:09.820Z,63.12
2018-06-22T11:50:07.891Z,65.81
2018-06-22T11:51:07.946Z,66.71
2018-06-22T11:52:08.795Z,66.71
2018-06-22T11:53:28.313Z,67.68
2018-06-22T11:54:07.850Z,68.54
2018-06-22T11:55:08.370Z,70.33
2018-06-22T11:56:09.774Z,70.14
2018-06-22T11:57:09.799Z,70.62
2018-06-22T11:58:08.457Z,71.67
2018-06-22T11:59:07.719Z,71.48
2018-06-22T12:00:09.824Z,70.94
2018-06-22T12:01:08.310Z,71.48
2018-06-22T12:02:07.952Z,71.64
2018-06-22T12:03:07.932Z,72.22
2018-06-22T12:04:07.974Z,71.87
2018-06-22T12:05:08.004Z,71.39
2018-06-22T12:06:10.110Z,71.29
2018-06-22T12:07:08.032Z,70.72
2018-06-22T12:08:08.268Z,70.90
2018-06-22T12:09:08.914Z,69.95
2018-06-22T12:10:07.938Z,70.04
2018-06-22T12:11:07.535Z,70.78
2018-06-22T12:12:08.271Z,71.58
2018-06-22T12:13:08.560Z,70.90
2018-06-22T12:14:08.300Z,70.72
2018-06-22T12:15:08.333Z,70.65
2018-06-22T12:16:08.295Z,69.50
2018-06-22T12:17:08.443Z,69.50
2018-06-22T12:18:08.045Z,70.37
2018-06-22T12:19:08.319Z,71.23
2018-06-22T12:20:07.741Z,69.69
2018-06-22T12:21:08.287Z,64.89
2018-06-22T12:22:08.116Z,64.98
2018-06-22T12:23:07.487Z,63.92
2018-06-22T12:24:08.336Z,63.45
2018-06-22T12:25:08.294Z,60.43
2018-06-22T12:26:08.298Z,59.57
2018-06-22T12:27:08.203Z,60.08
2018-06-22T12:28:08.425Z,59.41
2018-06-22T12:29:09.758Z,59.69
2018-06-22T12:30:08.311Z,59.05
2018-06-22T12:31:07.948Z,59.31
2018-06-22T12:32:08.300Z,59.31
2018-06-22T12:33:08.322Z,59.50
2018-06-22T12:34:08.307Z,59.15
2018-06-22T12:35:08.393Z,58.95
2018-06-22T12:36:07.785Z,59.05
2018-06-22T12:37:08.048Z,58.98
2018-06-22T12:38:08.416Z,58.44
2018-06-22T12:39:07.498Z,57.86
2018-06-22T12:40:08.454Z,58.15
2018-06-22T12:41:08.300Z,57.92
2018-06-22T12:42:08.306Z,59.15
2018-06-22T12:43:08.440Z,59.50
2018-06-22T12:44:08.043Z,60.82
2018-06-22T12:45:08.303Z,61.68
2018-06-22T12:46:08.464Z,62.26
2018-06-22T12:47:07.999Z,64.25
2018-06-22T12:48:08.084Z,66.90
2018-06-22T12:49:07.967Z,69.78
2018-06-22T12:50:08.305Z,69.65
2018-06-22T12:51:07.793Z,72.24
2018-06-22T12:52:08.313Z,71.19
2018-06-22T12:53:08.312Z,69.56
2018-06-22T12:54:08.382Z,70.23
2018-06-22T12:55:08.060Z,68.91
2018-06-22T12:56:07.978Z,68.98
2018-06-22T12:57:08.451Z,67.86
2018-06-22T12:58:08.792Z,67.76
2018-06-22T12:59:08.260Z,66.23
2018-06-22T13:00:08.069Z,65.49
2018-06-22T13:01:10.051Z,63.86
2018-06-22T13:02:08.237Z,63.41
2018-06-22T13:03:07.526Z,62.52
2018-06-22T13:04:07.337Z,63.41
2018-06-22T13:05:08.759Z,63.25
2018-06-22T13:06:08.473Z,60.52
2018-06-22T13:07:08.218Z,59.56
2018-06-22T13:08:07.803Z,59.11
2018-06-22T13:09:08.302Z,58.24
2018-06-22T13:10:08.043Z,59.37
2018-06-22T13:11:07.979Z,60.24
2018-06-22T13:12:08.059Z,59.53
2018-06-22T13:13:07.831Z,61.46
2018-06-22T13:14:08.030Z,61.84
2018-06-22T13:15:07.595Z,61.65
2018-06-22T13:16:08.016Z,61.84
2018-06-22T13:17:08.393Z,62.32
2018-06-22T13:18:07.326Z,62.06
2018-06-22T13:19:08.371Z,61.49